Terminal Aerodrome Forecast
Issued by NWS

Home | Current Version | Previous Version | Text Only | Print | Product List | Glossary Off
Versions: 1 2 3 4 5 6 7 8 9 10 11 12 13 14 15 16 17 18 19 20 21 22

000
FTUS43 KGRB 241800 AAA
TAFCWA
TAF AMD
KCWA 241841Z 2419/2518 28007KT P6SM OVC012
     FM242200 32005KT P6SM BKN020 OVC035
     FM250200 05007KT 6SM -SN BKN015 OVC030
      TEMPO 2502/2506 3SM -SN
     FM250700 07009KT P6SM BKN015 OVC030=

USA.gov is the U.S. government's official web portal to all federal, state and local government web resources and services.